sensor_id;sensor_type;location;lat;lon;timestamp;pressure;altitude;pressure_sealevel;temperature;humidity
24065;BME280;12258;50.940;5.330;2022-09-03T00:01:23;100539.19;;;22.78;47.42
24065;BME280;12258;50.940;5.330;2022-09-03T00:03:51;100538.63;;;22.97;46.42
24065;BME280;12258;50.940;5.330;2022-09-03T00:06:25;100524.03;;;22.67;47.28
24065;BME280;12258;50.940;5.330;2022-09-03T00:09:09;100527.03;;;22.95;46.72
24065;BME280;12258;50.940;5.330;2022-09-03T00:14:26;100520.81;;;22.65;47.88
24065;BME280;12258;50.940;5.330;2022-09-03T00:17:02;100516.56;;;22.59;48.29
24065;BME280;12258;50.940;5.330;2022-09-03T00:19:34;100519.75;;;22.70;47.58
24065;BME280;12258;50.940;5.330;2022-09-03T00:22:07;100518.66;;;22.62;48.47
24065;BME280;12258;50.940;5.330;2022-09-03T00:24:35;100520.31;;;22.63;49.29
24065;BME280;12258;50.940;5.330;2022-09-03T00:27:08;100525.63;;;22.56;49.61
24065;BME280;12258;50.940;5.330;2022-09-03T00:29:39;100527.44;;;22.52;49.74
24065;BME280;12258;50.940;5.330;2022-09-03T00:32:39;100522.00;;;22.55;50.08
24065;BME280;12258;50.940;5.330;2022-09-03T00:35:16;100527.38;;;22.60;50.25
24065;BME280;12258;50.940;5.330;2022-09-03T00:37:43;100525.63;;;22.56;50.31
24065;BME280;12258;50.940;5.330;2022-09-03T00:43:08;100528.75;;;22.54;49.90
24065;BME280;12258;50.940;5.330;2022-09-03T00:45:46;100527.88;;;22.42;53.02
24065;BME280;12258;50.940;5.330;2022-09-03T00:48:25;100531.34;;;22.39;53.36
24065;BME280;12258;50.940;5.330;2022-09-03T00:54:04;100531.53;;;22.34;53.18
24065;BME280;12258;50.940;5.330;2022-09-03T00:59:29;100539.69;;;22.39;53.29
24065;BME280;12258;50.940;5.330;2022-09-03T01:02:14;100538.78;;;22.26;53.21
24065;BME280;12258;50.940;5.330;2022-09-03T01:05:09;100540.22;;;22.32;54.06
24065;BME280;12258;50.940;5.330;2022-09-03T01:08:32;100529.09;;;22.32;54.54
24065;BME280;12258;50.940;5.330;2022-09-03T01:22:54;100527.97;;;22.13;56.49
24065;BME280;12258;50.940;5.330;2022-09-03T01:34:12;100547.47;;;22.25;58.60
24065;BME280;12258;50.940;5.330;2022-09-03T01:48:52;100544.16;;;22.11;60.34
24065;BME280;12258;50.940;5.330;2022-09-03T01:51:22;100543.75;;;22.21;60.08
24065;BME280;12258;50.940;5.330;2022-09-03T01:53:59;100542.06;;;22.08;60.82
24065;BME280;12258;50.940;5.330;2022-09-03T01:59:47;100531.19;;;22.15;60.17
24065;BME280;12258;50.940;5.330;2022-09-03T02:02:20;100540.75;;;22.05;60.30
24065;BME280;12258;50.940;5.330;2022-09-03T02:04:59;100538.31;;;22.04;60.78
24065;BME280;12258;50.940;5.330;2022-09-03T02:07:32;100540.75;;;22.05;59.89
24065;BME280;12258;50.940;5.330;2022-09-03T02:10:05;100534.16;;;22.10;59.65
24065;BME280;12258;50.940;5.330;2022-09-03T02:12:32;100538.94;;;22.09;59.61
24065;BME280;12258;50.940;5.330;2022-09-03T02:15:06;100536.50;;;22.08;59.45
24065;BME280;12258;50.940;5.330;2022-09-03T02:17:34;100540.91;;;22.09;60.38
24065;BME280;12258;50.940;5.330;2022-09-03T02:20:06;100532.84;;;22.16;59.03
24065;BME280;12258;50.940;5.330;2022-09-03T02:22:32;100531.66;;;22.17;59.46
24065;BME280;12258;50.940;5.330;2022-09-03T02:24:59;100529.28;;;22.07;60.43
24065;BME280;12258;50.940;5.330;2022-09-03T02:27:25;100529.78;;;22.09;60.24
24065;BME280;12258;50.940;5.330;2022-09-03T02:29:51;100527.66;;;22.06;60.51
24065;BME280;12258;50.940;5.330;2022-09-03T02:32:17;100529.28;;;22.07;59.98
24065;BME280;12258;50.940;5.330;2022-09-03T02:34:42;100532.56;;;22.09;60.49
24065;BME280;12258;50.940;5.330;2022-09-03T02:37:16;100537.72;;;22.19;59.64
24065;BME280;12258;50.940;5.330;2022-09-03T02:39:43;100536.59;;;22.11;60.48
24065;BME280;12258;50.940;5.330;2022-09-03T02:42:11;100536.75;;;22.15;59.60
24065;BME280;12258;50.940;5.330;2022-09-03T02:44:41;100541.38;;;22.11;61.18
24065;BME280;12258;50.940;5.330;2022-09-03T02:47:09;100540.28;;;22.03;61.44
24065;BME280;12258;50.940;5.330;2022-09-03T02:49:34;100537.97;;;22.05;61.17
24065;BME280;12258;50.940;5.330;2022-09-03T02:52:03;100532.94;;;21.99;61.84
24065;BME280;12258;50.940;5.330;2022-09-03T02:54:30;100534.13;;;21.98;61.88
24065;BME280;12258;50.940;5.330;2022-09-03T02:56:58;100537.34;;;22.00;61.88
24065;BME280;12258;50.940;5.330;2022-09-03T02:59:23;100538.31;;;22.04;61.87
24065;BME280;12258;50.940;5.330;2022-09-03T03:01:49;100535.06;;;22.02;61.74
24065;BME280;12258;50.940;5.330;2022-09-03T03:04:15;100544.06;;;21.99;62.32
24065;BME280;12258;50.940;5.330;2022-09-03T03:06:41;100538.19;;;22.00;62.38
24065;BME280;12258;50.940;5.330;2022-09-03T03:09:06;100534.47;;;21.96;62.60
24065;BME280;12258;50.940;5.330;2022-09-03T03:11:32;100535.09;;;21.93;62.85
24065;BME280;12258;50.940;5.330;2022-09-03T03:13:58;100532.00;;;21.95;62.91
24065;BME280;12258;50.940;5.330;2022-09-03T03:16:23;100534.50;;;21.88;62.80
24065;BME280;12258;50.940;5.330;2022-09-03T03:18:49;100541.19;;;21.87;62.94
24065;BME280;12258;50.940;5.330;2022-09-03T03:21:17;100536.19;;;21.80;64.70
24065;BME280;12258;50.940;5.330;2022-09-03T03:23:43;100538.91;;;21.89;64.43
24065;BME280;12258;50.940;5.330;2022-09-03T03:26:11;100531.59;;;21.84;64.45
24065;BME280;12258;50.940;5.330;2022-09-03T03:28:37;100540.41;;;21.86;64.00
24065;BME280;12258;50.940;5.330;2022-09-03T03:31:10;100536.31;;;21.84;64.33
24065;BME280;12258;50.940;5.330;2022-09-03T03:33:37;100533.59;;;21.75;65.21
24065;BME280;12258;50.940;5.330;2022-09-03T03:36:09;100533.69;;;21.87;64.87
24065;BME280;12258;50.940;5.330;2022-09-03T03:38:35;100535.03;;;21.81;64.09
24065;BME280;12258;50.940;5.330;2022-09-03T03:41:08;100535.72;;;21.78;64.98
24065;BME280;12258;50.940;5.330;2022-09-03T03:43:34;100536.50;;;21.79;65.16
24065;BME280;12258;50.940;5.330;2022-09-03T03:46:00;100531.44;;;21.81;65.16
24065;BME280;12258;50.940;5.330;2022-09-03T03:48:26;100532.63;;;21.71;65.37
24065;BME280;12258;50.940;5.330;2022-09-03T03:50:52;100534.50;;;21.88;63.94
24065;BME280;12258;50.940;5.330;2022-09-03T03:53:18;100533.88;;;21.82;64.44
24065;BME280;12258;50.940;5.330;2022-09-03T03:55:53;100535.66;;;21.87;64.82
24065;BME280;12258;50.940;5.330;2022-09-03T03:58:19;100532.25;;;21.81;64.69
24065;BME280;12258;50.940;5.330;2022-09-03T04:00:44;100536.19;;;21.80;64.04
24065;BME280;12258;50.940;5.330;2022-09-03T04:03:12;100539.94;;;21.84;63.61
24065;BME280;12258;50.940;5.330;2022-09-03T04:05:37;100533.59;;;21.75;65.71
24065;BME280;12258;50.940;5.330;2022-09-03T04:08:03;100534.91;;;21.78;65.32
24065;BME280;12258;50.940;5.330;2022-09-03T04:10:28;100537.34;;;21.71;65.37
24065;BME280;12258;50.940;5.330;2022-09-03T04:12:54;100530.66;;;21.72;66.33
24065;BME280;12258;50.940;5.330;2022-09-03T04:15:20;100529.34;;;21.78;64.49
24065;BME280;12258;50.940;5.330;2022-09-03T04:17:45;100532.75;;;21.75;65.47
24065;BME280;12258;50.940;5.330;2022-09-03T04:20:11;100532.28;;;21.73;65.53
24065;BME280;12258;50.940;5.330;2022-09-03T04:22:36;100529.97;;;21.75;65.55
24065;BME280;12258;50.940;5.330;2022-09-03T04:25:02;100530.16;;;21.70;65.56
24065;BME280;12258;50.940;5.330;2022-09-03T04:27:27;100528.94;;;21.59;65.95
24065;BME280;12258;50.940;5.330;2022-09-03T04:29:52;100529.50;;;21.73;65.58
24065;BME280;12258;50.940;5.330;2022-09-03T04:32:19;100532.63;;;21.71;66.53
24065;BME280;12258;50.940;5.330;2022-09-03T04:35:03;100524.94;;;21.77;65.19
24065;BME280;12258;50.940;5.330;2022-09-03T04:37:28;100532.28;;;21.73;65.17
24065;BME280;12258;50.940;5.330;2022-09-03T04:39:54;100526.75;;;21.64;65.68
24065;BME280;12258;50.940;5.330;2022-09-03T04:42:19;100529.06;;;21.62;67.49
24065;BME280;12258;50.940;5.330;2022-09-03T04:44:46;100526.91;;;21.68;66.29
24065;BME280;12258;50.940;5.330;2022-09-03T04:47:11;100527.97;;;21.55;68.20
24065;BME280;12258;50.940;5.330;2022-09-03T04:49:36;100525.09;;;21.72;65.91
24065;BME280;12258;50.940;5.330;2022-09-03T04:52:04;100527.41;;;21.70;66.28
24065;BME280;12258;50.940;5.330;2022-09-03T04:54:29;100528.94;;;21.59;67.56
24065;BME280;12258;50.940;5.330;2022-09-03T04:56:55;100526.75;;;21.64;67.48
24065;BME280;12258;50.940;5.330;2022-09-03T04:59:20;100531.34;;;21.69;66.82
24065;BME280;12258;50.940;5.330;2022-09-03T05:01:45;100529.88;;;21.63;66.64
24065;BME280;12258;50.940;5.330;2022-09-03T05:04:11;100527.59;;;21.65;66.64
24065;BME280;12258;50.940;5.330;2022-09-03T05:06:36;100539.97;;;21.38;70.15
24065;BME280;12258;50.940;5.330;2022-09-03T05:09:02;100541.88;;;21.55;68.93
24065;BME280;12258;50.940;5.330;2022-09-03T05:11:28;100543.56;;;21.47;70.45
24065;BME280;12258;50.940;5.330;2022-09-03T05:13:56;100538.78;;;21.48;70.14
24065;BME280;12258;50.940;5.330;2022-09-03T05:16:24;100537.31;;;21.50;70.38
24065;BME280;12258;50.940;5.330;2022-09-03T05:18:54;100540.91;;;21.51;69.26
24065;BME280;12258;50.940;5.330;2022-09-03T05:21:21;100541.25;;;20.94;74.35
24065;BME280;12258;50.940;5.330;2022-09-03T05:23:49;100541.34;;;21.23;72.11
24065;BME280;12258;50.940;5.330;2022-09-03T05:26:17;100545.66;;;20.95;72.35
24065;BME280;12258;50.940;5.330;2022-09-03T05:28:43;100538.00;;;20.92;73.74
24065;BME280;12258;50.940;5.330;2022-09-03T05:31:11;100544.00;;;21.11;73.99
24065;BME280;12258;50.940;5.330;2022-09-03T05:33:43;100539.09;;;21.17;70.14
24065;BME280;12258;50.940;5.330;2022-09-03T05:36:11;100543.38;;;21.06;71.23
24065;BME280;12258;50.940;5.330;2022-09-03T05:38:37;100549.38;;;21.16;72.08
24065;BME280;12258;50.940;5.330;2022-09-03T05:41:06;100541.34;;;21.23;72.96
24065;BME280;12258;50.940;5.330;2022-09-03T05:43:33;100544.25;;;20.72;74.36
24065;BME280;12258;50.940;5.330;2022-09-03T05:48:32;100544.16;;;21.15;73.79
24065;BME280;12258;50.940;5.330;2022-09-03T05:51:06;100548.34;;;20.75;74.65
24065;BME280;12258;50.940;5.330;2022-09-03T05:53:34;100553.44;;;21.27;72.27
24065;BME280;12258;50.940;5.330;2022-09-03T05:56:02;100558.09;;;21.06;77.73
24065;BME280;12258;50.940;5.330;2022-09-03T05:58:32;100556.41;;;21.22;72.19
24065;BME280;12258;50.940;5.330;2022-09-03T06:00:57;100556.50;;;21.34;74.00
24065;BME280;12258;50.940;5.330;2022-09-03T06:03:23;100554.50;;;20.89;74.39
24065;BME280;12258;50.940;5.330;2022-09-03T06:05:53;100553.91;;;21.29;76.14
24065;BME280;12258;50.940;5.330;2022-09-03T06:08:20;100546.16;;;20.89;75.63
24065;BME280;12258;50.940;5.330;2022-09-03T06:10:45;100558.16;;;20.47;78.18
24065;BME280;12258;50.940;5.330;2022-09-03T06:13:11;100555.44;;;21.10;74.45
24065;BME280;12258;50.940;5.330;2022-09-03T06:15:37;100557.91;;;21.11;75.74
24065;BME280;12258;50.940;5.330;2022-09-03T06:18:03;100560.13;;;21.26;75.65
24065;BME280;12258;50.940;5.330;2022-09-03T06:20:29;100555.28;;;21.53;72.72
24065;BME280;12258;50.940;5.330;2022-09-03T06:22:55;100559.88;;;21.49;77.03
24065;BME280;12258;50.940;5.330;2022-09-03T06:25:20;100562.31;;;21.21;75.74
24065;BME280;12258;50.940;5.330;2022-09-03T06:27:46;100555.69;;;21.72;72.04
24065;BME280;12258;50.940;5.330;2022-09-03T06:30:12;100561.09;;;21.68;75.79
24065;BME280;12258;50.940;5.330;2022-09-03T06:32:45;100565.25;;;21.54;77.41
24065;BME280;12258;50.940;5.330;2022-09-03T06:35:11;100566.19;;;21.28;78.58
24065;BME280;12258;50.940;5.330;2022-09-03T06:37:41;100569.19;;;21.53;78.53
24065;BME280;12258;50.940;5.330;2022-09-03T06:40:08;100566.59;;;21.48;76.94
24065;BME280;12258;50.940;5.330;2022-09-03T06:42:40;100568.81;;;21.63;78.82
24065;BME280;12258;50.940;5.330;2022-09-03T06:45:07;100574.03;;;21.26;79.03
24065;BME280;12258;50.940;5.330;2022-09-03T06:47:33;100571.78;;;21.58;78.16
24065;BME280;12258;50.940;5.330;2022-09-03T06:49:59;100572.75;;;21.62;79.09
24065;BME280;12258;50.940;5.330;2022-09-03T06:52:26;100577.44;;;21.41;81.72
24065;BME280;12258;50.940;5.330;2022-09-03T06:54:51;100578.78;;;22.01;79.42
24065;BME280;12258;50.940;5.330;2022-09-03T06:57:17;100580.72;;;21.72;81.34
24065;BME280;12258;50.940;5.330;2022-09-03T06:59:42;100579.69;;;22.55;78.44
24065;BME280;12258;50.940;5.330;2022-09-03T07:02:09;100573.84;;;23.01;78.98
24065;BME280;12258;50.940;5.330;2022-09-03T07:04:34;100578.06;;;23.19;73.89
24065;BME280;12258;50.940;5.330;2022-09-03T07:07:00;100575.25;;;22.54;69.20
24065;BME280;12258;50.940;5.330;2022-09-03T07:09:26;100588.25;;;23.72;74.72
24065;BME280;12258;50.940;5.330;2022-09-03T07:11:52;100583.97;;;23.50;65.11
24065;BME280;12258;50.940;5.330;2022-09-03T07:14:19;100581.34;;;24.42;64.64
24065;BME280;12258;50.940;5.330;2022-09-03T07:16:46;100583.47;;;24.21;60.65
24065;BME280;12258;50.940;5.330;2022-09-03T07:19:12;100577.50;;;24.34;59.15
24065;BME280;12258;50.940;5.330;2022-09-03T07:21:39;100576.03;;;25.35;58.90
24065;BME280;12258;50.940;5.330;2022-09-03T07:24:08;100575.56;;;25.49;56.38
24065;BME280;12258;50.940;5.330;2022-09-03T07:26:39;100574.13;;;25.39;54.92
24065;BME280;12258;50.940;5.330;2022-09-03T07:29:08;100582.59;;;24.84;56.22
24065;BME280;12258;50.940;5.330;2022-09-03T07:31:36;100586.28;;;24.88;58.42
24065;BME280;12258;50.940;5.330;2022-09-03T07:34:08;100589.56;;;25.64;56.82
24065;BME280;12258;50.940;5.330;2022-09-03T07:36:39;100589.25;;;26.16;57.78
24065;BME280;12258;50.940;5.330;2022-09-03T07:39:09;100600.28;;;27.39;56.61
24065;BME280;12258;50.940;5.330;2022-09-03T07:41:35;100596.94;;;26.92;54.51
24065;BME280;12258;50.940;5.330;2022-09-03T07:44:02;100581.81;;;26.58;52.12
24065;BME280;12258;50.940;5.330;2022-09-03T07:46:31;100604.69;;;27.85;51.95
24065;BME280;12258;50.940;5.330;2022-09-03T07:48:58;100593.47;;;27.85;47.71
24065;BME280;12258;50.940;5.330;2022-09-03T07:51:29;100591.00;;;27.35;50.07
24065;BME280;12258;50.940;5.330;2022-09-03T07:53:57;100593.19;;;28.46;49.33
24065;BME280;12258;50.940;5.330;2022-09-03T07:56:24;100586.19;;;28.33;48.86
24065;BME280;12258;50.940;5.330;2022-09-03T07:58:50;100584.63;;;29.31;46.86
24065;BME280;12258;50.940;5.330;2022-09-03T08:01:18;100582.38;;;27.92;45.92
24065;BME280;12258;50.940;5.330;2022-09-03T08:03:46;100591.47;;;29.34;46.84
24065;BME280;12258;50.940;5.330;2022-09-03T08:06:13;100596.19;;;26.95;48.80
24065;BME280;12258;50.940;5.330;2022-09-03T08:08:40;100594.25;;;27.18;50.23
24065;BME280;12258;50.940;5.330;2022-09-03T08:11:17;100589.97;;;26.48;53.64
24065;BME280;12258;50.940;5.330;2022-09-03T08:13:59;100597.88;;;27.18;52.69
24065;BME280;12258;50.940;5.330;2022-09-03T08:16:34;100599.22;;;27.92;51.23
24065;BME280;12258;50.940;5.330;2022-09-03T08:18:59;100603.00;;;26.94;52.93
24065;BME280;12258;50.940;5.330;2022-09-03T08:21:26;100609.81;;;28.02;51.67
24065;BME280;12258;50.940;5.330;2022-09-03T08:23:53;100615.13;;;28.37;51.84
24065;BME280;12258;50.940;5.330;2022-09-03T08:26:20;100616.47;;;28.72;50.39
24065;BME280;12258;50.940;5.330;2022-09-03T08:28:46;100610.75;;;27.42;52.47
24065;BME280;12258;50.940;5.330;2022-09-03T08:31:17;100618.09;;;27.50;52.73
24065;BME280;12258;50.940;5.330;2022-09-03T08:33:51;100611.59;;;27.23;54.97
24065;BME280;12258;50.940;5.330;2022-09-03T08:36:19;100617.53;;;28.35;52.63
24065;BME280;12258;50.940;5.330;2022-09-03T08:38:47;100616.84;;;28.41;52.97
24065;BME280;12258;50.940;5.330;2022-09-03T08:41:16;100625.78;;;26.73;60.19
24065;BME280;12258;50.940;5.330;2022-09-03T08:44:08;100624.97;;;27.75;60.18
24065;BME280;12258;50.940;5.330;2022-09-03T08:54:50;100637.63;;;27.88;59.73
24065;BME280;12258;50.940;5.330;2022-09-03T08:57:18;100637.63;;;28.11;59.73
24065;BME280;12258;50.940;5.330;2022-09-03T08:59:46;100639.19;;;28.08;58.96
24065;BME280;12258;50.940;5.330;2022-09-03T09:02:24;100641.75;;;27.71;60.32
24065;BME280;12258;50.940;5.330;2022-09-03T09:05:21;100647.06;;;28.25;58.78
24065;BME280;12258;50.940;5.330;2022-09-03T09:08:08;100638.66;;;28.51;59.31
24065;BME280;12258;50.940;5.330;2022-09-03T09:10:48;100638.34;;;27.59;61.70
24065;BME280;12258;50.940;5.330;2022-09-03T09:13:21;100639.97;;;28.57;58.42
24065;BME280;12258;50.940;5.330;2022-09-03T09:16:05;100645.16;;;29.15;60.67
24065;BME280;12258;50.940;5.330;2022-09-03T09:21:11;100640.97;;;30.83;57.32
24065;BME280;12258;50.940;5.330;2022-09-03T09:23:47;100643.16;;;31.28;55.50
24065;BME280;12258;50.940;5.330;2022-09-03T09:26:18;100639.03;;;31.01;56.79
24065;BME280;12258;50.940;5.330;2022-09-03T09:28:49;100640.47;;;32.13;52.63
24065;BME280;12258;50.940;5.330;2022-09-03T09:31:18;100634.00;;;32.44;50.70
24065;BME280;12258;50.940;5.330;2022-09-03T09:33:44;100636.00;;;31.80;52.19
24065;BME280;12258;50.940;5.330;2022-09-03T09:36:12;100632.94;;;30.92;54.18
24065;BME280;12258;50.940;5.330;2022-09-03T09:38:41;100633.56;;;31.72;51.65
24065;BME280;12258;50.940;5.330;2022-09-03T09:41:11;100637.88;;;32.89;50.12
24065;BME280;12258;50.940;5.330;2022-09-03T09:43:37;100624.94;;;32.98;50.42
24065;BME280;12258;50.940;5.330;2022-09-03T09:46:24;100632.47;;;33.87;47.90
24065;BME280;12258;50.940;5.330;2022-09-03T09:48:56;100636.28;;;32.91;46.70
24065;BME280;12258;50.940;5.330;2022-09-03T09:51:26;100631.78;;;34.21;45.69
24065;BME280;12258;50.940;5.330;2022-09-03T09:56:35;100634.56;;;30.93;55.88
24065;BME280;12258;50.940;5.330;2022-09-03T09:59:12;100639.69;;;31.95;52.23
24065;BME280;12258;50.940;5.330;2022-09-03T10:01:43;100633.97;;;32.33;52.14
24065;BME280;12258;50.940;5.330;2022-09-03T10:04:21;100633.97;;;31.70;54.58
24065;BME280;12258;50.940;5.330;2022-09-03T10:09:58;100632.25;;;31.16;53.60
24065;BME280;12258;50.940;5.330;2022-09-03T10:12:29;100627.94;;;31.75;53.17
24065;BME280;12258;50.940;5.330;2022-09-03T10:18:21;100634.41;;;32.18;52.17
24065;BME280;12258;50.940;5.330;2022-09-03T10:21:15;100629.81;;;31.11;53.06
24065;BME280;12258;50.940;5.330;2022-09-03T10:23:55;100630.75;;;31.75;51.33
24065;BME280;12258;50.940;5.330;2022-09-03T10:26:23;100643.72;;;31.87;53.11
24065;BME280;12258;50.940;5.330;2022-09-03T10:28:57;100640.81;;;31.48;52.71
24065;BME280;12258;50.940;5.330;2022-09-03T10:34:43;100640.75;;;32.85;50.28
24065;BME280;12258;50.940;5.330;2022-09-03T10:37:33;100635.19;;;31.80;52.02
24065;BME280;12258;50.940;5.330;2022-09-03T10:46:01;100635.94;;;34.13;48.00
24065;BME280;12258;50.940;5.330;2022-09-03T10:51:33;100643.72;;;32.11;50.19
24065;BME280;12258;50.940;5.330;2022-09-03T10:54:44;100633.22;;;34.80;45.02
24065;BME280;12258;50.940;5.330;2022-09-03T10:57:21;100628.69;;;34.82;44.66
24065;BME280;12258;50.940;5.330;2022-09-03T11:00:07;100629.97;;;32.10;47.79
24065;BME280;12258;50.940;5.330;2022-09-03T11:03:15;100628.94;;;33.04;45.40
24065;BME280;12258;50.940;5.330;2022-09-03T11:08:22;100637.88;;;32.99;46.37
24065;BME280;12258;50.940;5.330;2022-09-03T11:10:53;100626.31;;;33.41;43.70
24065;BME280;12258;50.940;5.330;2022-09-03T11:13:32;100626.00;;;35.36;40.65
24065;BME280;12258;50.940;5.330;2022-09-03T11:16:03;100629.38;;;33.68;43.44
24065;BME280;12258;50.940;5.330;2022-09-03T11:18:35;100629.03;;;33.59;42.08
24065;BME280;12258;50.940;5.330;2022-09-03T11:21:05;100634.16;;;33.13;44.14
24065;BME280;12258;50.940;5.330;2022-09-03T11:23:42;100625.75;;;32.88;45.08
24065;BME280;12258;50.940;5.330;2022-09-03T11:26:12;100619.28;;;32.95;46.38
24065;BME280;12258;50.940;5.330;2022-09-03T11:31:30;100620.84;;;34.63;44.49
24065;BME280;12258;50.940;5.330;2022-09-03T11:34:06;100616.75;;;33.14;44.67
24065;BME280;12258;50.940;5.330;2022-09-03T11:36:37;100616.94;;;34.06;40.91
24065;BME280;12258;50.940;5.330;2022-09-03T11:39:33;100612.25;;;34.30;40.79
24065;BME280;12258;50.940;5.330;2022-09-03T11:42:08;100616.47;;;35.49;39.79
24065;BME280;12258;50.940;5.330;2022-09-03T11:44:39;100617.19;;;37.27;38.52
24065;BME280;12258;50.940;5.330;2022-09-03T11:49:49;100595.13;;;35.34;39.61
24065;BME280;12258;50.940;5.330;2022-09-03T11:52:35;100596.69;;;35.42;39.83
24065;BME280;12258;50.940;5.330;2022-09-03T11:55:05;100602.34;;;36.81;37.62
24065;BME280;12258;50.940;5.330;2022-09-03T11:57:31;100595.28;;;35.77;38.87
24065;BME280;12258;50.940;5.330;2022-09-03T12:00:16;100583.69;;;34.81;39.12
24065;BME280;12258;50.940;5.330;2022-09-03T12:03:00;100594.44;;;35.57;40.60
24065;BME280;12258;50.940;5.330;2022-09-03T12:05:40;100604.13;;;37.30;38.80
24065;BME280;12258;50.940;5.330;2022-09-03T12:11:09;100599.53;;;36.77;38.12
24065;BME280;12258;50.940;5.330;2022-09-03T12:13:50;100596.28;;;37.34;37.63
24065;BME280;12258;50.940;5.330;2022-09-03T12:18:47;100589.53;;;38.24;35.44
24065;BME280;12258;50.940;5.330;2022-09-03T12:21:17;100601.50;;;38.19;35.31
24065;BME280;12258;50.940;5.330;2022-09-03T12:23:48;100596.94;;;37.06;36.02
24065;BME280;12258;50.940;5.330;2022-09-03T12:26:17;100600.78;;;37.51;35.52
24065;BME280;12258;50.940;5.330;2022-09-03T12:28:46;100601.34;;;37.94;35.04
24065;BME280;12258;50.940;5.330;2022-09-03T12:31:19;100599.03;;;37.89;35.35
24065;BME280;12258;50.940;5.330;2022-09-03T12:33:51;100592.59;;;37.53;35.61
24065;BME280;12258;50.940;5.330;2022-09-03T12:36:19;100594.09;;;36.86;36.84
24065;BME280;12258;50.940;5.330;2022-09-03T12:38:45;100597.47;;;37.17;36.28
24065;BME280;12258;50.940;5.330;2022-09-03T12:41:45;100592.69;;;37.82;34.80
24065;BME280;12258;50.940;5.330;2022-09-03T12:47:01;100597.31;;;37.92;35.00
24065;BME280;12258;50.940;5.330;2022-09-03T12:49:33;100584.66;;;34.34;35.51
24065;BME280;12258;50.940;5.330;2022-09-03T12:52:12;100589.53;;;37.08;33.75
24065;BME280;12258;50.940;5.330;2022-09-03T12:54:55;100580.50;;;36.55;33.88
24065;BME280;12258;50.940;5.330;2022-09-03T12:57:36;100582.72;;;36.86;32.95
24065;BME280;12258;50.940;5.330;2022-09-03T13:00:07;100590.16;;;37.16;33.40
24065;BME280;12258;50.940;5.330;2022-09-03T13:02:45;100587.34;;;36.57;34.39
24065;BME280;12258;50.940;5.330;2022-09-03T13:05:17;100590.03;;;37.75;34.74
24065;BME280;12258;50.940;5.330;2022-09-03T13:07:49;100591.75;;;36.62;37.19
24065;BME280;12258;50.940;5.330;2022-09-03T13:12:58;100591.34;;;37.70;34.76
24065;BME280;12258;50.940;5.330;2022-09-03T13:15:25;100587.53;;;37.93;33.76
24065;BME280;12258;50.940;5.330;2022-09-03T13:21:00;100588.22;;;37.48;34.20
24065;BME280;12258;50.940;5.330;2022-09-03T13:23:49;100592.31;;;38.56;33.49
24065;BME280;12258;50.940;5.330;2022-09-03T13:29:12;100594.63;;;39.56;32.12
24065;BME280;12258;50.940;5.330;2022-09-03T13:31:44;100590.47;;;39.57;32.54
24065;BME280;12258;50.940;5.330;2022-09-03T13:34:35;100590.00;;;39.34;32.11
24065;BME280;12258;50.940;5.330;2022-09-03T13:40:40;100582.78;;;38.47;31.87
24065;BME280;12258;50.940;5.330;2022-09-03T13:43:31;100596.13;;;40.07;31.44
24065;BME280;12258;50.940;5.330;2022-09-03T13:46:06;100579.59;;;39.65;29.14
24065;BME280;12258;50.940;5.330;2022-09-03T13:48:39;100588.63;;;39.76;28.88
24065;BME280;12258;50.940;5.330;2022-09-03T13:54:05;100583.84;;;37.08;31.82
24065;BME280;12258;50.940;5.330;2022-09-03T13:56:59;100587.47;;;39.98;30.41
24065;BME280;12258;50.940;5.330;2022-09-03T14:08:27;100587.13;;;36.68;33.83
24065;BME280;12258;50.940;5.330;2022-09-03T14:11:08;100591.94;;;36.71;34.08
24065;BME280;12258;50.940;5.330;2022-09-03T14:16:38;100583.09;;;36.65;34.17
24065;BME280;12258;50.940;5.330;2022-09-03T14:19:14;100600.53;;;37.26;33.77
24065;BME280;12258;50.940;5.330;2022-09-03T14:24:19;100590.53;;;35.17;35.84
24065;BME280;12258;50.940;5.330;2022-09-03T14:26:51;100597.44;;;35.96;35.03
24065;BME280;12258;50.940;5.330;2022-09-03T14:29:22;100590.75;;;35.83;35.84
24065;BME280;12258;50.940;5.330;2022-09-03T14:32:23;100591.38;;;35.44;37.12
24065;BME280;12258;50.940;5.330;2022-09-03T14:34:59;100591.50;;;35.87;35.10
24065;BME280;12258;50.940;5.330;2022-09-03T14:37:48;100590.00;;;35.52;36.80
24065;BME280;12258;50.940;5.330;2022-09-03T14:40:18;100597.38;;;35.50;36.44
24065;BME280;12258;50.940;5.330;2022-09-03T15:07:17;100601.28;;;34.69;38.56
24065;BME280;12258;50.940;5.330;2022-09-03T15:13:11;100599.06;;;34.13;39.14
24065;BME280;12258;50.940;5.330;2022-09-03T15:20:57;100607.03;;;34.25;39.50
24065;BME280;12258;50.940;5.330;2022-09-03T15:23:40;100606.22;;;33.18;42.39
24065;BME280;12258;50.940;5.330;2022-09-03T15:27:04;100606.28;;;33.11;42.01
24065;BME280;12258;50.940;5.330;2022-09-03T15:37:51;100604.88;;;33.37;42.61
24065;BME280;12258;50.940;5.330;2022-09-03T15:40:24;100603.69;;;32.30;45.00
24065;BME280;12258;50.940;5.330;2022-09-03T15:42:59;100603.31;;;32.11;45.64
24065;BME280;12258;50.940;5.330;2022-09-03T15:45:48;100605.72;;;32.09;46.16
24065;BME280;12258;50.940;5.330;2022-09-03T15:48:47;100611.41;;;31.88;46.48
24065;BME280;12258;50.940;5.330;2022-09-03T15:51:30;100608.91;;;32.49;45.20
24065;BME280;12258;50.940;5.330;2022-09-03T16:02:16;100615.44;;;32.01;48.03
24065;BME280;12258;50.940;5.330;2022-09-03T16:04:59;100617.00;;;31.45;50.14
24065;BME280;12258;50.940;5.330;2022-09-03T16:10:17;100621.06;;;31.66;50.80
24065;BME280;12258;50.940;5.330;2022-09-03T16:13:03;100626.28;;;31.71;51.41
24065;BME280;12258;50.940;5.330;2022-09-03T16:15:39;100625.50;;;32.02;51.15